Time;durP1;ratioP1;P1;durP2;ratioP2;P2;SDS_P1;SDS_P2;PMS_P1;PMS_P2;Temp;Humidity;BMP_temperature;BMP_pressure;BME280_temperature;BME280_humidity;BME280_pressure;Samples;Min_cycle;Max_cycle;Signal;HPM_P1;HPM_P2
2022/05/06 00:01:35;;;;;;;120.20;21.60;;;;;;;10.78;96.81;102520.19;5096490;28;20027;-35
2022/05/06 00:04:02;;;;;;;180.85;22.30;;;;;;;10.73;97.45;102518.97;5095027;28;20055;-36
2022/05/06 00:06:28;;;;;;;63.85;23.65;;;;;;;10.81;97.82;102513.91;5096620;28;20028;-36
2022/05/06 00:08:54;;;;;;;106.70;21.55;;;;;;;10.88;96.90;102522.72;5096273;28;20482;-36
2022/05/06 00:11:19;;;;;;;71.30;21.35;;;;;;;10.88;96.81;102519.31;5095935;28;20044;-38
2022/05/06 00:13:44;;;;;;;58.17;20.55;;;;;;;10.91;96.29;102519.03;5095862;28;20028;-39
2022/05/06 00:16:10;;;;;;;57.08;20.38;;;;;;;10.96;96.52;102520.22;5095856;28;20028;-37
2022/05/06 00:18:35;;;;;;;120.47;21.60;;;;;;;10.76;97.08;102522.13;5095962;28;20039;-37
2022/05/06 00:21:00;;;;;;;71.93;19.05;;;;;;;10.73;97.47;102514.66;5095544;28;20015;-38
2022/05/06 00:23:26;;;;;;;84.32;19.40;;;;;;;10.74;97.66;102518.03;5094898;28;20491;-37
2022/05/06 00:25:51;;;;;;;123.10;19.55;;;;;;;10.73;97.04;102514.66;5095538;28;20024;-37
2022/05/06 00:28:17;;;;;;;110.55;20.40;;;;;;;10.69;97.64;102521.06;5095657;28;20388;-36
2022/05/06 00:30:42;;;;;;;66.10;20.42;;;;;;;10.80;97.88;102520.84;5093471;28;20031;-35
2022/05/06 00:33:09;;;;;;;93.18;20.25;;;;;;;10.78;97.04;102516.78;5093934;28;20166;-35
2022/05/06 00:35:36;;;;;;;95.40;20.35;;;;;;;10.75;97.55;102519.66;5095775;28;20036;-34
2022/05/06 00:38:02;;;;;;;74.78;18.67;;;;;;;10.77;97.60;102521.16;5095509;28;20023;-34
2022/05/06 00:40:28;;;;;;;95.28;19.85;;;;;;;10.80;97.44;102509.69;5094509;28;20471;-35
2022/05/06 00:42:54;;;;;;;80.68;18.77;;;;;;;10.75;97.36;102510.13;5095751;28;20020;-34
2022/05/06 00:45:20;;;;;;;65.15;18.95;;;;;;;10.71;97.41;102511.38;5095690;28;20466;-34
2022/05/06 00:47:46;;;;;;;86.70;17.58;;;;;;;10.54;97.32;102509.59;5095344;28;20059;-33
2022/05/06 00:50:12;;;;;;;59.85;18.00;;;;;;;10.72;97.43;102510.41;5095539;28;20044;-35
2022/05/06 00:52:37;;;;;;;85.65;18.02;;;;;;;10.70;97.33;102508.94;5095644;28;20031;-35
2022/05/06 00:55:04;;;;;;;74.13;17.67;;;;;;;10.34;97.78;102470.09;5095451;28;20020;-35
2022/05/06 00:57:30;;;;;;;61.55;17.08;;;;;;;10.60;97.81;102509.81;5095135;28;20047;-35
2022/05/06 01:02:39;;;;;;;39.15;16.23;;;;;;;10.70;97.28;102509.75;5095305;28;20031;-34
2022/05/06 01:05:05;;;;;;;54.45;16.23;;;;;;;10.69;96.81;102515.06;5094869;28;20394;-34
2022/05/06 01:07:30;;;;;;;64.22;15.32;;;;;;;10.54;96.89;102515.56;5095200;28;20489;-38
2022/05/06 01:09:56;;;;;;;78.95;16.20;;;;;;;10.56;96.70;102511.06;5094753;28;20024;-35
2022/05/06 01:12:21;;;;;;;50.60;15.55;;;;;;;10.54;96.89;102512.97;5094630;28;20038;-33
2022/05/06 01:14:46;;;;;;;121.40;17.00;;;;;;;10.44;96.64;102509.63;5094485;28;20023;-33
2022/05/06 01:17:13;;;;;;;52.63;15.18;;;;;;;10.57;97.13;102510.09;5094148;28;20024;-35
2022/05/06 01:19:39;;;;;;;49.75;16.20;;;;;;;10.69;97.06;102505.53;5093449;28;20070;-34
2022/05/06 01:22:04;;;;;;;55.35;15.93;;;;;;;10.63;96.74;102500.94;5094388;28;20109;-35
2022/05/06 01:24:31;;;;;;;48.88;15.82;;;;;;;10.67;97.15;102512.63;5094608;28;20032;-33
2022/05/06 01:26:59;;;;;;;38.75;15.82;;;;;;;10.69;96.52;102510.72;5095116;28;20020;-35
2022/05/06 01:29:24;;;;;;;40.78;15.48;;;;;;;10.60;96.74;102506.41;5095082;28;20024;-35
2022/05/06 01:31:51;;;;;;;117.20;16.92;;;;;;;10.58;96.36;102508.31;5094519;28;20039;-35
2022/05/06 01:34:17;;;;;;;51.75;15.35;;;;;;;10.56;96.76;102510.25;5094641;28;20054;-36
2022/05/06 01:36:46;;;;;;;75.72;16.60;;;;;;;10.47;96.94;102508.50;5093103;28;20066;-35
2022/05/06 01:39:13;;;;;;;60.22;15.98;;;;;;;10.36;97.57;102512.13;5094641;28;20024;-35
2022/05/06 01:41:41;;;;;;;56.05;15.80;;;;;;;10.39;97.73;102507.47;5094546;28;20020;-34
2022/05/06 01:44:09;;;;;;;107.82;16.73;;;;;;;10.32;97.71;102505.59;5093691;28;20020;-35
2022/05/06 01:46:36;;;;;;;69.65;16.58;;;;;;;10.48;97.83;102510.16;5094179;28;20028;-35
2022/05/06 01:49:03;;;;;;;71.57;16.38;;;;;;;10.45;97.31;102511.25;5094466;28;20020;-33
2022/05/06 01:51:29;;;;;;;56.88;16.67;;;;;;;10.47;97.81;102514.53;5094136;28;20548;-35
2022/05/06 01:53:54;;;;;;;53.70;17.55;;;;;;;10.50;97.15;102505.63;5094558;28;20024;-34
2022/05/06 01:56:20;;;;;;;48.90;17.63;;;;;;;10.50;97.30;102515.97;5092834;28;20026;-34
2022/05/06 01:58:47;;;;;;;54.40;17.63;;;;;;;10.60;97.68;102514.16;5093881;28;20032;-33
2022/05/06 02:01:12;;;;;;;117.57;17.23;;;;;;;10.48;96.54;102512.75;5093910;28;20107;-35
2022/05/06 02:06:21;;;;;;;52.15;17.60;;;;;;;10.45;98.03;102513.84;5094425;28;20109;-32
2022/05/06 02:08:47;;;;;;;76.57;17.70;;;;;;;10.44;98.55;102513.97;5093632;28;20053;-33
2022/05/06 02:11:12;;;;;;;73.68;17.60;;;;;;;10.47;98.39;102518.84;5093811;28;20024;-35
2022/05/06 02:13:38;;;;;;;61.22;18.17;;;;;;;10.59;98.53;102515.13;5094033;28;20081;-34
2022/05/06 02:16:03;;;;;;;56.58;17.73;;;;;;;10.59;98.56;102515.94;5093868;28;20051;-32
2022/05/06 02:18:29;;;;;;;42.33;17.00;;;;;;;10.58;98.77;102522.06;5093504;28;20024;-34
2022/05/06 02:20:56;;;;;;;54.55;17.02;;;;;;;10.59;98.86;102521.13;5093695;28;20538;-34
2022/05/06 02:23:22;;;;;;;47.90;17.50;;;;;;;10.59;98.34;102520.31;5093224;28;20036;-35
2022/05/06 02:25:47;;;;;;;53.72;15.93;;;;;;;10.56;98.02;102518.03;5092384;28;20092;-35
2022/05/06 02:28:14;;;;;;;80.68;14.95;;;;;;;10.34;98.05;102519.19;5093548;28;20024;-33
2022/05/06 02:33:24;;;;;;;33.58;13.88;;;;;;;10.38;98.21;102516.16;5093760;28;20113;-35
2022/05/06 02:35:51;;;;;;;32.50;14.15;;;;;;;10.44;98.00;102514.78;5093583;28;20436;-34
2022/05/06 02:38:16;;;;;;;86.93;13.07;;;;;;;10.30;96.98;102512.66;5093751;28;20386;-35
2022/05/06 02:40:41;;;;;;;47.22;12.18;;;;;;;10.12;97.48;102512.56;5093643;28;20020;-36
2022/05/06 02:43:07;;;;;;;100.97;14.07;;;;;;;10.14;97.62;102521.00;5093761;28;20493;-36
2022/05/06 02:45:33;;;;;;;68.18;13.95;;;;;;;10.09;98.00;102513.66;5092189;28;20060;-35
2022/05/06 02:47:59;;;;;;;64.47;13.68;;;;;;;10.15;98.08;102514.88;5093904;28;20085;-34
2022/05/06 02:50:24;;;;;;;60.72;13.35;;;;;;;10.21;97.94;102521.25;5093862;28;20028;-33
2022/05/06 02:52:50;;;;;;;173.40;16.40;;;;;;;10.21;97.94;102521.25;5093178;28;20093;-36
2022/05/06 02:55:16;;;;;;;134.02;15.35;;;;;;;10.21;98.82;102514.31;5093866;28;20030;-35
2022/05/06 02:57:41;;;;;;;45.00;15.48;;;;;;;10.35;99.59;102513.88;5097467;28;20028;-36
2022/05/06 03:00:07;;;;;;;56.15;16.20;;;;;;;10.41;99.35;102511.69;5097500;28;20063;-36
2022/05/06 03:02:32;;;;;;;59.08;15.30;;;;;;;10.44;99.25;102514.78;5097317;28;20081;-36
2022/05/06 03:04:58;;;;;;;89.60;18.08;;;;;;;10.45;99.55;102521.59;5097349;28;20506;-36
2022/05/06 03:07:23;;;;;;;38.83;15.43;;;;;;;10.50;99.34;102521.16;5097364;28;20483;-34
2022/05/06 03:09:49;;;;;;;57.72;15.50;;;;;;;10.51;99.26;102525.38;5098013;28;20043;-40
2022/05/06 03:12:17;;;;;;;61.53;15.18;;;;;;;10.44;98.69;102524.31;5096987;28;20056;-34
2022/05/06 03:14:43;;;;;;;56.60;16.73;;;;;;;10.46;99.45;102519.81;5095884;28;20042;-35
2022/05/06 03:17:09;;;;;;;53.80;15.90;;;;;;;10.46;98.92;102520.63;5096129;28;20016;-35
2022/05/06 03:19:34;;;;;;;66.78;18.13;;;;;;;10.50;98.63;102528.91;5097607;28;20161;-35
2022/05/06 03:22:00;;;;;;;85.22;15.60;;;;;;;10.38;97.55;102525.69;5096093;28;20059;-35
2022/05/06 03:24:25;;;;;;;47.58;15.82;;;;;;;10.48;98.81;102525.66;5096919;28;20043;-35
2022/05/06 03:26:50;;;;;;;90.38;15.43;;;;;;;10.28;98.25;102523.16;5097237;28;20027;-36
2022/05/06 03:29:16;;;;;;;38.35;14.80;;;;;;;10.27;98.65;102518.97;5097148;28;20024;-35
2022/05/06 03:31:41;;;;;;;52.83;14.70;;;;;;;10.17;98.93;102518.94;5097357;28;20099;-36
2022/05/06 03:34:07;;;;;;;69.88;14.90;;;;;;;10.03;98.72;102518.59;5096986;28;20439;-34
2022/05/06 03:36:35;;;;;;;40.55;14.38;;;;;;;9.88;99.23;102528.56;5096664;28;20020;-34
2022/05/06 03:39:03;;;;;;;89.65;16.67;;;;;;;9.96;98.79;102522.72;5097017;28;20020;-35
2022/05/06 03:41:28;;;;;;;49.22;14.85;;;;;;;9.98;98.95;102518.19;5096877;28;20095;-35
2022/05/06 03:43:54;;;;;;;53.22;14.70;;;;;;;10.10;98.29;102527.44;5095182;28;20494;-34
2022/05/06 03:46:19;;;;;;;41.35;13.73;;;;;;;10.11;98.02;102518.72;5097001;28;20055;-35
2022/05/06 03:48:44;;;;;;;27.25;13.90;;;;;;;10.15;97.99;102520.03;5097025;28;20114;-35
2022/05/06 03:51:22;;;;;;;39.13;13.77;;;;;;;10.17;97.68;102518.13;5096405;28;20020;-35
2022/05/06 03:53:57;;;;;;;32.42;13.63;;;;;;;10.02;98.24;102509.22;5096526;28;20364;-36
2022/05/06 03:56:24;;;;;;;29.65;13.98;;;;;;;10.17;98.01;102507.81;5096902;28;20031;-36
2022/05/06 03:58:50;;;;;;;59.88;13.90;;;;;;;10.14;97.54;102508.09;5096271;28;20031;-36
2022/05/06 04:01:18;;;;;;;26.65;13.50;;;;;;;10.05;97.80;102509.75;5096700;28;20034;-36
2022/05/06 04:03:43;;;;;;;33.60;14.50;;;;;;;9.99;97.96;102505.16;5096446;28;20028;-33
2022/05/06 04:06:13;;;;;;;29.52;14.60;;;;;;;10.01;98.59;102505.84;5095332;28;20024;-36
2022/05/06 04:08:38;;;;;;;27.13;14.52;;;;;;;10.00;98.34;102511.94;5096562;28;20023;-35
2022/05/06 04:11:03;;;;;;;78.43;15.68;;;;;;;9.94;98.91;102513.31;5096291;28;20024;-35
2022/05/06 04:13:28;;;;;;;28.70;14.40;;;;;;;10.17;98.78;102515.56;5096721;28;20036;-36
2022/05/06 04:15:54;;;;;;;78.53;15.82;;;;;;;10.08;97.91;102514.63;5096197;28;20467;-35
2022/05/06 04:18:19;;;;;;;66.72;14.73;;;;;;;10.07;98.06;102513.03;5095949;28;20046;-34
2022/05/06 04:23:29;;;;;;;22.27;12.25;;;;;;;10.07;98.20;102514.75;5095776;28;20055;-33
2022/05/06 04:26:04;;;;;;;21.15;10.63;;;;;;;10.00;97.76;102516.28;5096038;28;20027;-35
2022/05/06 04:28:31;;;;;;;30.80;10.75;;;;;;;10.00;97.52;102521.47;5096019;28;20047;-34
2022/05/06 04:30:57;;;;;;;22.45;10.80;;;;;;;10.01;98.36;102523.06;5095612;28;20424;-34
2022/05/06 04:33:26;;;;;;;25.67;11.05;;;;;;;10.07;98.36;102528.53;5095601;28;20077;-35
2022/05/06 04:35:56;;;;;;;39.13;11.88;;;;;;;10.12;97.99;102530.66;5095627;28;20035;-34
2022/05/06 04:38:22;;;;;;;42.35;11.15;;;;;;;10.02;97.87;102530.69;5095613;28;20467;-33
2022/05/06 04:40:48;;;;;;;23.30;10.27;;;;;;;9.98;98.68;102536.28;5096006;28;20027;-35
2022/05/06 04:43:14;;;;;;;22.55;10.02;;;;;;;10.07;98.83;102532.84;5095390;28;20023;-35
2022/05/06 04:45:40;;;;;;;21.13;9.15;;;;;;;10.08;98.50;102532.72;5095721;28;20379;-35
2022/05/06 04:48:07;;;;;;;13.05;8.23;;;;;;;10.16;97.94;102532.03;5095599;28;20073;-35
2022/05/06 04:50:34;;;;;;;39.25;8.30;;;;;;;10.20;97.62;102537.72;5095581;28;20024;-35
2022/05/06 04:52:59;;;;;;;25.50;7.72;;;;;;;10.15;96.91;102532.97;5095476;28;20486;-35
2022/05/06 04:55:25;;;;;;;19.42;7.30;;;;;;;10.17;96.65;102539.63;5095741;28;20020;-33
2022/05/06 04:57:50;;;;;;;13.65;6.32;;;;;;;10.25;96.61;102546.66;5095420;28;20062;-33
2022/05/06 05:00:16;;;;;;;17.17;6.50;;;;;;;10.15;95.63;102536.34;5094183;28;20040;-35
2022/05/06 05:02:41;;;;;;;18.65;5.82;;;;;;;10.07;95.68;102546.59;5095043;28;20414;-34
2022/05/06 05:05:07;;;;;;;20.25;5.95;;;;;;;10.04;95.82;102548.63;5094988;28;20390;-34
2022/05/06 05:07:32;;;;;;;20.52;5.75;;;;;;;10.13;96.32;102545.22;5095217;28;20027;-35
2022/05/06 05:09:57;;;;;;;9.50;6.03;;;;;;;10.15;95.29;102546.69;5095404;28;20020;-35
2022/05/06 05:12:24;;;;;;;11.98;5.53;;;;;;;10.12;95.44;102554.72;5093842;28;20427;-33
2022/05/06 05:14:50;;;;;;;8.57;5.30;;;;;;;10.08;95.96;102550.00;5092034;28;20386;-35
2022/05/06 05:17:16;;;;;;;11.52;5.60;;;;;;;10.14;95.53;102552.00;5091620;28;20076;-34
2022/05/06 05:19:42;;;;;;;34.45;5.88;;;;;;;10.05;95.96;102547.69;5092961;28;20455;-33
2022/05/06 05:22:07;;;;;;;27.00;6.00;;;;;;;10.13;96.47;102545.22;5092451;28;20525;-34
2022/05/06 05:24:33;;;;;;;17.38;6.13;;;;;;;10.12;96.13;102546.97;5093500;28;20026;-34
2022/05/06 05:26:58;;;;;;;23.98;6.20;;;;;;;10.17;95.46;102554.31;5093308;28;20024;-36
2022/05/06 05:29:24;;;;;;;16.25;6.13;;;;;;;10.19;95.83;102557.56;5093442;28;20035;-36
2022/05/06 05:31:50;;;;;;;15.30;5.70;;;;;;;10.46;95.09;102553.41;5094137;28;20028;-36
2022/05/06 05:34:16;;;;;;;9.30;5.03;;;;;;;10.51;93.65;102549.47;5093483;28;20030;-35
2022/05/06 05:36:41;;;;;;;8.25;5.07;;;;;;;10.51;93.24;102566.75;5094631;28;20441;-35
2022/05/06 05:39:07;;;;;;;14.48;5.00;;;;;;;10.45;93.44;102562.16;5093677;28;20390;-36
2022/05/06 05:41:33;;;;;;;9.52;4.60;;;;;;;10.51;92.81;102564.97;5093338;28;20463;-35
2022/05/06 05:49:27;;;;;;;32.95;5.20;;;;;;;10.55;92.48;102574.03;5094146;28;20030;-35
2022/05/06 05:51:52;;;;;;;26.77;5.05;;;;;;;10.58;91.81;102578.13;5094200;28;20028;-35
2022/05/06 05:54:17;;;;;;;14.57;4.72;;;;;;;10.58;92.38;102571.19;5094284;28;20027;-35
2022/05/06 05:56:42;;;;;;;6.38;4.90;;;;;;;10.72;91.95;102567.31;5093948;28;20031;-36
2022/05/06 05:59:08;;;;;;;7.85;5.10;;;;;;;10.66;91.97;102567.88;5094460;28;20515;-35
2022/05/06 06:01:33;;;;;;;14.13;5.05;;;;;;;10.63;92.67;102573.34;5093996;28;20024;-34
2022/05/06 06:03:59;;;;;;;12.50;5.40;;;;;;;10.68;92.27;102571.16;5094281;28;20024;-34
2022/05/06 06:06:24;;;;;;;29.42;4.97;;;;;;;10.67;92.33;102568.69;5094123;28;20182;-34
2022/05/06 06:08:50;;;;;;;5.97;4.57;;;;;;;10.71;92.64;102570.06;5094798;28;20469;-36
2022/05/06 06:11:15;;;;;;;8.75;5.40;;;;;;;10.91;91.68;102573.34;5094184;28;20019;-34
2022/05/06 06:13:41;;;;;;;5.82;4.63;;;;;;;10.94;91.56;102567.88;5093858;28;20352;-33
2022/05/06 06:16:06;;;;;;;12.30;5.60;;;;;;;10.84;90.89;102567.91;5094242;28;20019;-34
2022/05/06 06:18:31;;;;;;;9.95;5.60;;;;;;;10.97;91.00;102563.22;5094184;28;20035;-33
2022/05/06 06:20:57;;;;;;;13.40;5.80;;;;;;;10.86;90.57;102563.44;5093893;28;20148;-35
2022/05/06 06:23:23;;;;;;;7.72;5.90;;;;;;;10.87;91.26;102574.56;5093330;28;20157;-35
2022/05/06 06:25:48;;;;;;;9.80;6.10;;;;;;;10.94;91.36;102568.69;5093524;28;20482;-35
2022/05/06 06:28:14;;;;;;;8.15;6.35;;;;;;;11.13;91.02;102575.50;5093504;28;20024;-39
2022/05/06 06:30:40;;;;;;;11.98;6.57;;;;;;;11.24;89.63;102580.47;5093392;28;20031;-35
2022/05/06 06:33:07;;;;;;;12.48;6.85;;;;;;;11.20;89.96;102584.31;5093673;28;20028;-35
2022/05/06 06:35:32;;;;;;;12.10;6.78;;;;;;;11.24;88.89;102582.25;5093454;28;20467;-37
2022/05/06 06:37:57;;;;;;;10.25;7.38;;;;;;;11.28;88.59;102581.81;5093927;28;20031;-37
2022/05/06 06:40:23;;;;;;;10.13;7.30;;;;;;;11.18;88.65;102596.59;5093422;28;20453;-37
2022/05/06 06:42:48;;;;;;;9.68;6.65;;;;;;;11.28;89.40;102599.94;5093872;28;20027;-37
2022/05/06 06:45:13;;;;;;;10.45;7.07;;;;;;;11.26;89.22;102593.28;5093669;28;20392;-37
2022/05/06 06:47:39;;;;;;;10.40;6.97;;;;;;;11.77;87.20;102594.38;5093356;28;20021;-37
2022/05/06 06:50:05;;;;;;;11.13;6.70;;;;;;;11.76;87.12;102595.31;5092282;28;20212;-37
2022/05/06 06:52:30;;;;;;;11.25;7.07;;;;;;;12.54;84.00;102595.31;5093483;28;20043;-36
2022/05/06 06:54:57;;;;;;;8.75;6.53;;;;;;;12.28;84.21;102587.59;5093181;28;20027;-37
2022/05/06 06:57:22;;;;;;;11.48;7.30;;;;;;;12.24;85.14;102595.84;5091230;28;20024;-36
2022/05/06 06:59:47;;;;;;;10.40;7.32;;;;;;;12.33;84.21;102590.53;5092939;28;20027;-36
2022/05/06 07:02:13;;;;;;;9.55;6.90;;;;;;;12.36;84.01;102587.63;5091529;28;20024;-38
2022/05/06 07:04:38;;;;;;;9.38;6.68;;;;;;;12.41;82.05;102587.19;5092779;28;20028;-37
2022/05/06 07:12:31;;;;;;;8.82;6.45;;;;;;;13.09;81.25;102599.25;5093149;28;20031;-36
2022/05/06 07:14:57;;;;;;;10.32;7.03;;;;;;;13.95;78.11;102598.00;5093165;28;20024;-37
2022/05/06 07:17:22;;;;;;;9.93;7.28;;;;;;;15.17;72.04;102595.94;5093008;28;20050;-38
2022/05/06 07:19:48;;;;;;;9.93;7.30;;;;;;;14.42;75.74;102598.06;5092166;28;20385;-39
2022/05/06 07:22:13;;;;;;;9.68;7.43;;;;;;;14.25;75.52;102609.50;5090026;28;20091;-39
2022/05/06 07:24:38;;;;;;;15.60;7.45;;;;;;;13.86;76.04;102583.41;5092494;28;20493;-38
2022/05/06 07:27:04;;;;;;;10.05;6.75;;;;;;;13.85;77.18;102600.78;5092672;28;20031;-38
2022/05/06 07:29:31;;;;;;;11.00;7.35;;;;;;;14.85;75.00;102603.75;5092808;28;20436;-37
2022/05/06 07:31:56;;;;;;;9.80;6.93;;;;;;;16.68;66.37;102601.00;5091818;28;20107;-37
2022/05/06 07:34:22;;;;;;;10.27;6.70;;;;;;;15.82;67.32;102610.25;5093196;28;20169;-37
2022/05/06 07:36:47;;;;;;;9.00;6.50;;;;;;;15.91;68.15;102598.75;5092883;28;20023;-37
2022/05/06 07:39:13;;;;;;;7.80;6.00;;;;;;;15.75;69.43;102599.75;5093251;28;20024;-37
2022/05/06 07:41:39;;;;;;;8.00;5.85;;;;;;;14.60;72.63;102592.66;5094530;28;20119;-37
2022/05/06 07:44:05;;;;;;;7.85;6.07;;;;;;;14.86;71.48;102613.19;5096912;28;20115;-36
2022/05/06 07:46:32;;;;;;;7.03;5.47;;;;;;;17.03;66.42;102607.25;5096588;28;20032;-38
2022/05/06 07:48:57;;;;;;;6.50;5.45;;;;;;;17.13;63.96;102594.69;5097055;28;20292;-37
2022/05/06 07:51:23;;;;;;;7.15;5.40;;;;;;;16.75;66.48;102609.72;5096520;28;20031;-45
2022/05/06 07:53:51;;;;;;;6.90;5.22;;;;;;;17.22;64.14;102603.22;5096633;28;20032;-45
2022/05/06 07:56:17;;;;;;;5.88;4.53;;;;;;;16.32;64.65;102603.56;5097487;28;20031;-41
2022/05/06 07:58:42;;;;;;;6.80;4.95;;;;;;;16.33;65.52;102610.41;5096618;28;20024;-46
2022/05/06 08:01:10;;;;;;;5.70;4.40;;;;;;;17.15;63.15;102602.34;5095536;28;20108;-45
2022/05/06 08:06:19;;;;;;;4.55;3.92;;;;;;;16.90;63.20;102601.88;5096527;28;20548;-46
2022/05/06 08:08:44;;;;;;;4.93;3.90;;;;;;;17.69;61.35;102604.41;5096319;28;20036;-40
2022/05/06 08:11:09;;;;;;;5.00;4.40;;;;;;;17.62;61.50;102603.56;5078006;28;20108;-46
2022/05/06 08:13:34;;;;;;;8.95;4.80;;;;;;;17.45;61.56;102602.22;5096346;28;20028;-46
2022/05/06 08:16:00;;;;;;;6.00;4.80;;;;;;;18.11;60.06;102601.91;5096033;28;20031;-46
2022/05/06 08:18:25;;;;;;;5.30;4.50;;;;;;;17.76;60.46;102600.03;5096007;28;20038;-46
2022/05/06 08:20:53;;;;;;;4.97;4.35;;;;;;;18.03;60.32;102598.44;5096977;28;20026;-47
2022/05/06 08:23:21;;;;;;;5.85;4.20;;;;;;;17.87;59.74;102593.50;5095926;28;20040;-46
2022/05/06 08:25:47;;;;;;;6.00;4.38;;;;;;;18.15;59.45;102587.41;5094561;28;20024;-46
2022/05/06 08:28:13;;;;;;;6.07;4.80;;;;;;;17.87;60.56;102583.06;5096018;28;20135;-50
2022/05/06 08:30:39;;;;;;;6.30;4.90;;;;;;;17.77;60.88;102593.00;5094843;28;20020;-48
2022/05/06 08:33:05;;;;;;;4.70;4.13;;;;;;;18.09;61.08;102590.81;5095623;28;20398;-47
2022/05/06 08:35:30;;;;;;;5.72;4.32;;;;;;;18.43;58.09;102593.41;5096279;28;20035;-38
2022/05/06 08:37:57;;;;;;;6.35;4.10;;;;;;;17.95;59.60;102587.31;5095599;28;20038;-38
2022/05/06 08:40:25;;;;;;;4.60;4.07;;;;;;;17.74;58.86;102598.59;5095831;28;20383;-37
2022/05/06 08:42:51;;;;;;;4.68;4.15;;;;;;;18.04;60.08;102591.41;5095755;28;20016;-38
2022/05/06 08:50:53;;;;;;;6.30;5.00;;;;;;;18.57;58.06;102573.31;5095880;28;20536;-39
2022/05/06 08:53:40;;;;;;;5.00;4.50;;;;;;;18.58;57.35;102576.72;5095115;28;20028;-42
2022/05/06 08:56:05;;;;;;;8.27;4.50;;;;;;;19.27;56.08;102575.69;5095405;28;20039;-41
2022/05/06 08:58:37;;;;;;;5.85;4.80;;;;;;;19.06;57.41;102580.09;5095201;28;20067;-42
2022/05/06 09:01:11;;;;;;;5.75;4.82;;;;;;;19.20;56.91;102580.94;5094693;28;20020;-41
2022/05/06 09:03:41;;;;;;;6.20;4.88;;;;;;;20.02;54.98;102584.94;5094993;28;20024;-47
2022/05/06 09:06:20;;;;;;;5.43;4.45;;;;;;;19.40;55.29;102575.69;5095217;28;20390;-46
2022/05/06 09:08:47;;;;;;;4.70;3.67;;;;;;;20.22;53.03;102574.34;5093623;28;20088;-47
2022/05/06 09:11:13;;;;;;;5.55;4.50;;;;;;;18.93;55.44;102574.84;5095505;28;20020;-46
2022/05/06 09:13:51;;;;;;;6.70;4.65;;;;;;;19.08;56.08;102569.44;5095159;28;20374;-40
2022/05/06 09:16:44;;;;;;;4.70;4.20;;;;;;;19.75;52.86;102565.00;5094767;28;20110;-42
2022/05/06 09:19:20;;;;;;;;;;;;;;;19.81;52.16;102577.28;5095194;28;20031;-42
2022/05/06 09:22:05;;;;;;;5.13;4.38;;;;;;;19.23;55.09;102564.81;5094414;28;19973;-40
2022/05/06 09:24:35;;;;;;;5.43;4.40;;;;;;;20.13;53.39;102567.72;5094857;28;20012;-41
2022/05/06 09:27:07;;;;;;;6.95;3.88;;;;;;;20.30;52.28;102565.44;5095040;28;20386;-42
2022/05/06 09:29:38;;;;;;;8.20;4.03;;;;;;;20.73;50.89;102559.59;5094763;28;20111;-46
2022/05/06 09:32:33;;;;;;;6.47;3.78;;;;;;;21.09;48.98;102566.00;5094510;28;20027;-46
2022/05/06 09:35:10;;;;;;;4.57;3.60;;;;;;;21.39;48.87;102559.13;5071827;28;20094;-47
2022/05/06 09:37:36;;;;;;;5.00;3.50;;;;;;;21.19;48.88;102558.47;5095226;28;20106;-46
2022/05/06 09:40:18;;;;;;;7.72;4.80;;;;;;;20.95;48.79;102563.50;5094574;28;20020;-46
2022/05/06 09:42:46;;;;;;;6.90;3.80;;;;;;;20.89;50.60;102560.91;5093550;28;20046;-38
2022/05/06 09:45:13;;;;;;;5.78;3.50;;;;;;;22.03;46.62;102562.31;5094614;28;20024;-46
2022/05/06 09:47:40;;;;;;;7.32;3.70;;;;;;;22.17;46.71;102559.53;5094343;28;20025;-47
2022/05/06 09:50:07;;;;;;;8.90;4.70;;;;;;;22.03;46.11;102551.78;5094714;28;20035;-46
2022/05/06 09:52:33;;;;;;;7.45;4.70;;;;;;;22.26;47.44;102556.38;5094328;28;20115;-41
2022/05/06 09:55:00;;;;;;;8.27;4.65;;;;;;;22.38;45.46;102561.69;5094097;28;20024;-41
2022/05/06 09:57:25;;;;;;;9.23;4.50;;;;;;;21.99;45.56;102561.16;5093932;28;20043;-41
2022/05/06 09:59:50;;;;;;;7.47;4.85;;;;;;;22.13;45.19;102551.28;5094564;28;20443;-38
2022/05/06 10:02:17;;;;;;;8.55;4.97;;;;;;;22.55;46.49;102556.63;5094518;28;20107;-37
2022/05/06 10:04:43;;;;;;;9.88;4.65;;;;;;;22.38;45.45;102548.53;5093547;28;20382;-46
2022/05/06 10:07:14;;;;;;;8.27;5.07;;;;;;;22.96;44.35;102547.16;5093945;28;20024;-46
2022/05/06 10:09:48;;;;;;;6.35;5.00;;;;;;;22.68;44.21;102545.91;5092575;28;20031;-46
2022/05/06 10:12:16;;;;;;;6.35;5.10;;;;;;;22.65;43.67;102537.66;5093150;28;20505;-46
2022/05/06 10:14:44;;;;;;;8.40;4.95;;;;;;;22.41;44.85;102548.13;5093675;28;20020;-44
2022/05/06 10:17:09;;;;;;;8.50;4.78;;;;;;;22.63;45.00;102542.34;5093040;28;20020;-45
2022/05/06 10:19:37;;;;;;;8.80;5.50;;;;;;;23.21;43.05;102539.00;5092515;28;20532;-44
2022/05/06 10:22:03;;;;;;;7.13;6.00;;;;;;;22.63;43.79;102531.78;5093098;28;20059;-46
2022/05/06 10:24:49;;;;;;;11.48;6.50;;;;;;;22.74;42.94;102534.44;5093844;28;20562;-46
2022/05/06 10:33:16;;;;;;;9.23;6.85;;;;;;;23.26;41.92;102517.22;5092638;28;20042;-45
2022/05/06 10:35:42;;;;;;;10.90;7.35;;;;;;;22.45;44.13;102512.38;5092704;28;20118;-46
2022/05/06 10:38:25;;;;;;;11.13;7.10;;;;;;;22.26;43.39;102519.53;5093429;28;20031;-46
2022/05/06 10:40:53;;;;;;;9.77;7.00;;;;;;;22.87;42.54;102525.56;5093495;28;20032;-46
2022/05/06 10:43:40;;;;;;;10.73;6.63;;;;;;;22.87;43.02;102514.19;5093325;28;20466;-46
2022/05/06 10:46:06;;;;;;;12.15;6.60;;;;;;;22.74;42.83;102512.56;5093604;28;20035;-45
2022/05/06 10:48:31;;;;;;;8.18;6.15;;;;;;;23.01;42.63;102520.09;5093335;28;20074;-46
2022/05/06 10:51:19;;;;;;;7.53;5.10;;;;;;;23.28;41.38;102512.53;5093503;28;20023;-46
2022/05/06 10:53:45;;;;;;;9.85;6.43;;;;;;;22.97;41.60;102510.00;5091861;28;20175;-39
2022/05/06 10:56:11;;;;;;;9.02;6.20;;;;;;;23.15;41.92;102513.56;5093511;28;20449;-41
2022/05/06 10:58:36;;;;;;;10.60;6.60;;;;;;;22.81;41.63;102518.53;5093538;28;20027;-40
2022/05/06 11:01:01;;;;;;;9.25;6.47;;;;;;;23.76;41.29;102509.59;5093529;28;20015;-41
2022/05/06 11:03:26;;;;;;;8.95;6.18;;;;;;;23.98;41.50;102509.78;5093287;28;20036;-38
2022/05/06 11:05:52;;;;;;;12.07;7.00;;;;;;;23.40;41.73;102518.59;5093463;28;20099;-41
2022/05/06 11:08:21;;;;;;;10.80;6.40;;;;;;;23.39;42.30;102515.16;5093055;28;20020;-41
2022/05/06 11:10:46;;;;;;;9.55;6.75;;;;;;;23.21;42.38;102502.09;5092086;28;20502;-40
2022/05/06 11:13:11;;;;;;;10.23;6.50;;;;;;;23.40;41.83;102510.69;5092861;28;20016;-41
2022/05/06 11:15:37;;;;;;;10.82;7.00;;;;;;;23.06;42.37;102504.38;5093969;28;20027;-41
2022/05/06 11:18:04;;;;;;;11.23;6.60;;;;;;;24.10;42.19;102497.31;5096390;28;20020;-41
2022/05/06 11:20:33;;;;;;;10.02;6.78;;;;;;;24.11;40.91;102500.78;5097290;28;20416;-41
2022/05/06 11:23:06;;;;;;;9.07;6.50;;;;;;;23.79;41.69;102492.50;5096905;28;20123;-38
2022/05/06 11:25:40;;;;;;;9.35;7.20;;;;;;;23.85;41.12;102492.38;5095758;28;20169;-41
2022/05/06 11:28:13;;;;;;;9.82;5.82;;;;;;;24.41;41.50;102499.72;5097131;28;20100;-42
2022/05/06 11:30:42;;;;;;;9.93;7.22;;;;;;;24.53;40.15;102474.06;5097144;28;20036;-42
2022/05/06 11:33:08;;;;;;;12.02;6.65;;;;;;;24.29;41.41;102494.50;5096961;28;20020;-41
2022/05/06 11:35:46;;;;;;;11.77;7.95;;;;;;;24.39;41.49;102486.75;5097028;28;20031;-40
2022/05/06 11:38:12;;;;;;;12.48;8.35;;;;;;;23.83;41.83;102481.25;5097067;28;20043;-41
2022/05/06 11:40:38;;;;;;;12.32;7.90;;;;;;;24.64;40.73;102478.47;5097066;28;20020;-40
2022/05/06 11:43:18;;;;;;;13.73;9.18;;;;;;;24.84;39.88;102482.47;5096871;28;20190;-40
2022/05/06 11:48:30;;;;;;;12.93;9.52;;;;;;;24.19;40.45;102479.25;5097293;28;20058;-38
2022/05/06 11:50:59;;;;;;;13.00;9.13;;;;;;;23.57;41.86;102479.91;5096812;28;20020;-40
2022/05/06 11:53:27;;;;;;;13.00;9.48;;;;;;;23.04;43.99;102478.25;5097062;28;20134;-41
2022/05/06 11:55:55;;;;;;;14.77;9.60;;;;;;;24.43;41.56;102472.06;5097107;28;20038;-40